Time;durP1;ratioP1;P1;durP2;ratioP2;P2;SDS_P1;SDS_P2;PMS_P1;PMS_P2;Temp;Humidity;BMP_temperature;BMP_pressure;BME280_temperature;BME280_humidity;BME280_pressure;Samples;Min_cycle;Max_cycle;Signal;HPM_P1;HPM_P2
2023/09/20 00:00:40;;;;;;;4.77;2.00;;;;;;;;;;5011108;28;20293;-54
2023/09/20 00:03:06;;;;;;;5.23;2.10;;;;;;;;;;5011173;28;20230;-54
2023/09/20 00:05:33;;;;;;;3.67;2.00;;;;;;;;;;5011400;28;20237;-54
2023/09/20 00:08:02;;;;;;;4.37;2.10;;;;;;;;;;5011253;28;20203;-54
2023/09/20 00:10:29;;;;;;;6.80;2.27;;;;;;;;;;5011068;28;20206;-54
2023/09/20 00:12:55;;;;;;;4.53;2.23;;;;;;;;;;5010466;28;20203;-53
2023/09/20 00:15:22;;;;;;;4.90;1.87;;;;;;;;;;5011183;28;20199;-53
2023/09/20 00:17:48;;;;;;;5.60;2.10;;;;;;;;;;5008285;28;20202;-54
2023/09/20 00:20:14;;;;;;;4.20;2.10;;;;;;;;;;5011234;28;20210;-54
2023/09/20 00:22:41;;;;;;;5.40;2.27;;;;;;;;;;5010986;28;20219;-53
2023/09/20 00:25:08;;;;;;;4.73;1.90;;;;;;;;;;5011392;28;20285;-54
2023/09/20 00:27:35;;;;;;;3.93;2.00;;;;;;;;;;5011092;28;20194;-54
2023/09/20 00:30:03;;;;;;;4.50;2.00;;;;;;;;;;5011279;28;20203;-54
2023/09/20 00:32:30;;;;;;;4.37;1.93;;;;;;;;;;5011082;28;20285;-55
2023/09/20 00:34:56;;;;;;;4.63;2.40;;;;;;;;;;5011065;28;20602;-55
2023/09/20 00:37:22;;;;;;;5.93;2.00;;;;;;;;;;5010930;28;20195;-55
2023/09/20 00:39:49;;;;;;;4.50;1.90;;;;;;;;;;5011152;28;20229;-54
2023/09/20 00:42:15;;;;;;;4.80;2.07;;;;;;;;;;5011003;28;20209;-55
2023/09/20 00:44:43;;;;;;;7.07;2.00;;;;;;;;;;5012762;28;20206;-55
2023/09/20 00:47:11;;;;;;;5.40;2.40;;;;;;;;;;5014557;28;20286;-55
2023/09/20 00:49:37;;;;;;;3.43;2.00;;;;;;;;;;5014438;28;20202;-55
2023/09/20 00:52:06;;;;;;;5.53;1.70;;;;;;;;;;5014687;28;20206;-55
2023/09/20 00:54:33;;;;;;;3.63;1.70;;;;;;;;;;5014471;28;20277;-55
2023/09/20 00:56:59;;;;;;;4.87;1.97;;;;;;;;;;5014224;28;20212;-54
2023/09/20 00:59:25;;;;;;;5.80;2.20;;;;;;;;;;5014159;28;20623;-54
2023/09/20 01:01:53;;;;;;;6.03;2.23;;;;;;;;;;5014099;28;20256;-55
2023/09/20 01:04:19;;;;;;;4.17;1.90;;;;;;;;;;5014257;28;20262;-54
2023/09/20 01:06:47;;;;;;;5.53;1.90;;;;;;;;;;5014400;28;20195;-55
2023/09/20 01:09:13;;;;;;;4.83;2.00;;;;;;;;;;5014142;28;20205;-55
2023/09/20 01:11:40;;;;;;;3.50;1.97;;;;;;;;;;5014011;28;20261;-55
2023/09/20 01:14:06;;;;;;;6.27;2.00;;;;;;;;;;5014087;28;20197;-55
2023/09/20 01:16:33;;;;;;;5.07;2.10;;;;;;;;;;5014053;28;20206;-55
2023/09/20 01:19:04;;;;;;;3.23;2.00;;;;;;;;;;5013846;28;20206;-55
2023/09/20 01:21:30;;;;;;;4.50;2.30;;;;;;;;;;5013853;28;20206;-55
2023/09/20 01:23:58;;;;;;;6.13;2.37;;;;;;;;;;5013843;28;20227;-54
2023/09/20 01:26:24;;;;;;;3.17;1.90;;;;;;;;;;5013682;28;20215;-55
2023/09/20 01:28:50;;;;;;;7.27;2.10;;;;;;;;;;5013724;28;20238;-55
2023/09/20 01:31:16;;;;;;;4.13;2.33;;;;;;;;;;5013747;28;20190;-55
2023/09/20 01:33:42;;;;;;;6.47;2.20;;;;;;;;;;5013482;28;20199;-55
2023/09/20 01:36:08;;;;;;;4.53;2.10;;;;;;;;;;5013387;28;20219;-55
2023/09/20 01:38:34;;;;;;;4.40;2.17;;;;;;;;;;5013308;28;20237;-54
2023/09/20 01:41:03;;;;;;;4.13;1.90;;;;;;;;;;5013446;28;20245;-55
2023/09/20 01:43:29;;;;;;;3.87;1.90;;;;;;;;;;5013382;28;20243;-55
2023/09/20 01:45:55;;;;;;;4.30;1.90;;;;;;;;;;5013269;28;20197;-55
2023/09/20 01:48:21;;;;;;;4.47;2.00;;;;;;;;;;5013411;28;20567;-55
2023/09/20 01:50:49;;;;;;;3.23;2.10;;;;;;;;;;5013297;28;20195;-55
2023/09/20 01:53:15;;;;;;;5.60;2.00;;;;;;;;;;5013259;28;20272;-54
2023/09/20 01:55:42;;;;;;;5.77;1.90;;;;;;;;;;5011814;28;20202;-54
2023/09/20 01:58:12;;;;;;;4.00;2.23;;;;;;;;;;5013184;28;20616;-55
2023/09/20 02:00:40;;;;;;;5.07;2.40;;;;;;;;;;5013383;28;20222;-55
2023/09/20 02:03:13;;;;;;;4.83;2.07;;;;;;;;;;5013198;28;20252;-55
2023/09/20 02:05:40;;;;;;;5.33;2.00;;;;;;;;;;5013155;28;20260;-55
2023/09/20 02:08:07;;;;;;;4.23;1.97;;;;;;;;;;5013330;28;20206;-55
2023/09/20 02:10:34;;;;;;;2.97;1.90;;;;;;;;;;5013128;28;20213;-55
2023/09/20 02:13:01;;;;;;;3.40;1.80;;;;;;;;;;5012969;28;20221;-55
2023/09/20 02:15:29;;;;;;;4.40;2.23;;;;;;;;;;5012879;28;20233;-55
2023/09/20 02:17:55;;;;;;;5.10;2.20;;;;;;;;;;5012728;28;20215;-55
2023/09/20 02:20:23;;;;;;;4.43;1.93;;;;;;;;;;5012945;28;20206;-55
2023/09/20 02:22:50;;;;;;;3.33;1.80;;;;;;;;;;5012993;28;20254;-55
2023/09/20 02:25:20;;;;;;;5.40;2.00;;;;;;;;;;5012991;28;20203;-55
2023/09/20 02:27:46;;;;;;;4.50;2.07;;;;;;;;;;5012705;28;20208;-55
2023/09/20 02:30:19;;;;;;;5.37;1.80;;;;;;;;;;5012789;28;20253;-55
2023/09/20 02:32:50;;;;;;;4.20;1.70;;;;;;;;;;5012547;28;20615;-55
2023/09/20 02:35:16;;;;;;;5.30;2.10;;;;;;;;;;5012653;28;20597;-54
2023/09/20 02:37:43;;;;;;;4.87;2.37;;;;;;;;;;5012265;28;20245;-55
2023/09/20 02:40:14;;;;;;;6.70;2.33;;;;;;;;;;5012564;28;20207;-55
2023/09/20 02:42:41;;;;;;;4.37;2.07;;;;;;;;;;5012207;28;20289;-55
2023/09/20 02:45:08;;;;;;;11.10;2.27;;;;;;;;;;5012471;28;20203;-54
2023/09/20 02:47:34;;;;;;;4.43;2.03;;;;;;;;;;5012424;28;20203;-54
2023/09/20 02:50:04;;;;;;;6.47;2.50;;;;;;;;;;5012368;28;20194;-55
2023/09/20 02:52:33;;;;;;;5.93;2.20;;;;;;;;;;5012228;28;20207;-54
2023/09/20 02:55:00;;;;;;;6.53;2.47;;;;;;;;;;5012123;28;21163;-55
2023/09/20 02:57:26;;;;;;;4.10;1.77;;;;;;;;;;5012111;28;20256;-55
2023/09/20 02:59:52;;;;;;;4.50;2.03;;;;;;;;;;5011993;28;20209;-54
2023/09/20 03:02:19;;;;;;;4.30;1.93;;;;;;;;;;5012117;28;20660;-55
2023/09/20 03:04:45;;;;;;;5.03;2.27;;;;;;;;;;5012032;28;20218;-55
2023/09/20 03:07:12;;;;;;;6.50;2.40;;;;;;;;;;5011684;28;20251;-55
2023/09/20 03:09:41;;;;;;;5.90;2.63;;;;;;;;;;5011833;28;20209;-55
2023/09/20 03:12:07;;;;;;;5.90;2.30;;;;;;;;;;5011764;28;20746;-55
2023/09/20 03:14:34;;;;;;;2.93;2.07;;;;;;;;;;5011956;28;20199;-55
2023/09/20 03:17:02;;;;;;;3.67;2.10;;;;;;;;;;5011940;28;20202;-54
2023/09/20 03:19:30;;;;;;;4.40;2.20;;;;;;;;;;5011738;28;20191;-55
2023/09/20 03:21:56;;;;;;;4.47;2.20;;;;;;;;;;5011632;28;20211;-55
2023/09/20 03:24:23;;;;;;;8.47;2.00;;;;;;;;;;5011664;28;20227;-55
2023/09/20 03:26:52;;;;;;;5.10;2.27;;;;;;;;;;5011731;28;20288;-55
2023/09/20 03:29:18;;;;;;;5.60;2.70;;;;;;;;;;5011784;28;20206;-55
2023/09/20 03:31:44;;;;;;;4.50;2.10;;;;;;;;;;5011573;28;20280;-55
2023/09/20 03:34:11;;;;;;;6.67;2.77;;;;;;;;;;5011631;28;20194;-55
2023/09/20 03:36:41;;;;;;;6.00;2.10;;;;;;;;;;5011498;28;20627;-55
2023/09/20 03:39:11;;;;;;;5.23;2.70;;;;;;;;;;5011696;28;20257;-55
2023/09/20 03:41:38;;;;;;;5.70;2.43;;;;;;;;;;5011543;28;20229;-55
2023/09/20 03:44:05;;;;;;;3.97;2.40;;;;;;;;;;5011626;28;20393;-55
2023/09/20 03:46:32;;;;;;;3.40;2.00;;;;;;;;;;5011580;28;20257;-55
2023/09/20 03:48:58;;;;;;;4.80;2.00;;;;;;;;;;5011491;28;20253;-55
2023/09/20 03:51:24;;;;;;;4.03;2.03;;;;;;;;;;5011622;28;20198;-55
2023/09/20 03:53:50;;;;;;;5.30;2.30;;;;;;;;;;5011489;28;20537;-55
2023/09/20 03:56:16;;;;;;;4.63;2.20;;;;;;;;;;5011580;28;20285;-55
2023/09/20 03:58:43;;;;;;;4.70;2.40;;;;;;;;;;5011343;28;20308;-55
2023/09/20 04:01:10;;;;;;;4.73;2.00;;;;;;;;;;5011462;28;20284;-55
2023/09/20 04:03:36;;;;;;;3.40;1.93;;;;;;;;;;5011468;28;20635;-54
2023/09/20 04:06:02;;;;;;;5.80;2.60;;;;;;;;;;5011438;28;20213;-55
2023/09/20 04:08:28;;;;;;;4.53;2.20;;;;;;;;;;5011486;28;20198;-55
2023/09/20 04:10:56;;;;;;;5.13;2.20;;;;;;;;;;5011042;28;20583;-55
2023/09/20 04:13:22;;;;;;;6.70;2.43;;;;;;;;;;5011336;28;20629;-55
2023/09/20 04:15:50;;;;;;;4.07;2.50;;;;;;;;;;5011347;28;20237;-55
2023/09/20 04:18:16;;;;;;;7.83;2.63;;;;;;;;;;5011559;28;20237;-54
2023/09/20 04:20:42;;;;;;;5.90;2.37;;;;;;;;;;5015024;28;20789;-54
2023/09/20 04:23:09;;;;;;;5.00;2.40;;;;;;;;;;5015166;28;20699;-54
2023/09/20 04:25:35;;;;;;;5.47;2.20;;;;;;;;;;5014927;28;20702;-54
2023/09/20 04:28:01;;;;;;;6.73;2.60;;;;;;;;;;5014934;28;20201;-54
2023/09/20 04:30:29;;;;;;;3.83;2.30;;;;;;;;;;5014868;28;20205;-53
2023/09/20 04:32:56;;;;;;;5.97;2.40;;;;;;;;;;5014750;28;20206;-53
2023/09/20 04:35:22;;;;;;;6.70;2.10;;;;;;;;;;5014664;28;20223;-55
2023/09/20 04:37:49;;;;;;;7.83;2.73;;;;;;;;;;5014585;28;20316;-55
2023/09/20 04:40:15;;;;;;;3.73;2.03;;;;;;;;;;5014505;28;20699;-55
2023/09/20 04:42:42;;;;;;;5.00;2.27;;;;;;;;;;5014358;28;20245;-55
2023/09/20 04:45:12;;;;;;;7.53;2.50;;;;;;;;;;5014356;28;20197;-55
2023/09/20 04:47:38;;;;;;;5.57;2.20;;;;;;;;;;5014358;28;20632;-55
2023/09/20 04:50:07;;;;;;;4.93;2.60;;;;;;;;;;5014634;28;20202;-55
2023/09/20 04:52:33;;;;;;;6.43;2.43;;;;;;;;;;5014481;28;20265;-55
2023/09/20 04:54:59;;;;;;;3.93;2.13;;;;;;;;;;5014257;28;20726;-55
2023/09/20 04:57:25;;;;;;;7.17;2.50;;;;;;;;;;5014217;28;20801;-55
2023/09/20 04:59:51;;;;;;;4.87;2.50;;;;;;;;;;5014219;28;20193;-55
2023/09/20 05:02:17;;;;;;;4.10;2.20;;;;;;;;;;5014421;28;20200;-55
2023/09/20 05:04:44;;;;;;;3.27;2.30;;;;;;;;;;5013966;28;20256;-55
2023/09/20 05:07:11;;;;;;;5.17;2.40;;;;;;;;;;5014199;28;20206;-55
2023/09/20 05:09:37;;;;;;;6.27;2.50;;;;;;;;;;5014072;28;20308;-55
2023/09/20 05:12:04;;;;;;;7.47;2.63;;;;;;;;;;5013926;28;20193;-55
2023/09/20 05:14:30;;;;;;;6.63;3.07;;;;;;;;;;5012922;28;20240;-55
2023/09/20 05:16:56;;;;;;;5.60;2.50;;;;;;;;;;5013204;28;20238;-55
2023/09/20 05:19:25;;;;;;;5.53;2.30;;;;;;;;;;5013847;28;20220;-55
2023/09/20 05:21:51;;;;;;;5.07;2.40;;;;;;;;;;5013484;28;20616;-54
2023/09/20 05:24:18;;;;;;;6.70;2.80;;;;;;;;;;5013754;28;20308;-55
2023/09/20 05:26:47;;;;;;;4.50;2.30;;;;;;;;;;5013415;28;20218;-54
2023/09/20 05:29:13;;;;;;;5.93;2.23;;;;;;;;;;5013437;28;20295;-54
2023/09/20 05:31:39;;;;;;;6.53;2.73;;;;;;;;;;5012868;28;20710;-54
2023/09/20 05:34:06;;;;;;;5.67;2.37;;;;;;;;;;5013238;28;20206;-53
2023/09/20 05:36:32;;;;;;;5.23;2.50;;;;;;;;;;5013109;28;20275;-54
2023/09/20 05:38:58;;;;;;;6.93;2.63;;;;;;;;;;5012937;28;20241;-54
2023/09/20 05:41:28;;;;;;;5.17;2.63;;;;;;;;;;5013182;28;20202;-54
2023/09/20 05:43:53;;;;;;;6.70;2.57;;;;;;;;;;5013012;28;20229;-55
2023/09/20 05:46:20;;;;;;;4.93;2.40;;;;;;;;;;5013263;28;20288;-54
2023/09/20 05:48:46;;;;;;;8.23;3.27;;;;;;;;;;5013050;28;20205;-54
2023/09/20 05:51:15;;;;;;;5.50;2.70;;;;;;;;;;5013066;28;20201;-54
2023/09/20 05:53:42;;;;;;;7.40;2.47;;;;;;;;;;5013048;28;20647;-54
2023/09/20 05:56:10;;;;;;;4.90;2.40;;;;;;;;;;5012929;28;20288;-54
2023/09/20 05:58:40;;;;;;;5.67;2.00;;;;;;;;;;5013243;28;20622;-55
2023/09/20 06:01:09;;;;;;;8.77;2.70;;;;;;;;;;5012950;28;20210;-55
2023/09/20 06:03:35;;;;;;;4.80;2.30;;;;;;;;;;5013010;28;20688;-55
2023/09/20 06:06:01;;;;;;;7.47;2.67;;;;;;;;;;5012810;28;20197;-55
2023/09/20 06:08:27;;;;;;;5.10;2.37;;;;;;;;;;5012781;28;20248;-55
2023/09/20 06:10:53;;;;;;;4.03;2.27;;;;;;;;;;5012572;28;20197;-55
2023/09/20 06:13:19;;;;;;;5.57;2.57;;;;;;;;;;5012735;28;20567;-55
2023/09/20 06:15:46;;;;;;;7.50;2.70;;;;;;;;;;5012667;28;20221;-55
2023/09/20 06:18:14;;;;;;;4.30;2.30;;;;;;;;;;5012724;28;20575;-54
2023/09/20 06:20:45;;;;;;;4.73;2.30;;;;;;;;;;5012435;28;20199;-55
2023/09/20 06:23:12;;;;;;;5.80;2.30;;;;;;;;;;5012611;28;20241;-55
2023/09/20 06:25:38;;;;;;;5.33;2.23;;;;;;;;;;5012387;28;20202;-55
2023/09/20 06:28:07;;;;;;;6.37;2.23;;;;;;;;;;5012621;28;20541;-54
2023/09/20 06:30:33;;;;;;;5.90;2.50;;;;;;;;;;5012468;28;20199;-54
2023/09/20 06:33:01;;;;;;;8.27;2.80;;;;;;;;;;5012153;28;20206;-54
2023/09/20 06:35:27;;;;;;;6.63;2.47;;;;;;;;;;5012246;28;20225;-55
2023/09/20 06:37:53;;;;;;;5.30;2.10;;;;;;;;;;5011973;28;20287;-55
2023/09/20 06:40:22;;;;;;;6.97;2.50;;;;;;;;;;5012136;28;20194;-55
2023/09/20 06:42:50;;;;;;;4.80;2.30;;;;;;;;;;5011484;28;20200;-55
2023/09/20 06:45:17;;;;;;;6.17;2.60;;;;;;;;;;5012120;28;20219;-55
2023/09/20 06:47:43;;;;;;;5.40;2.43;;;;;;;;;;5011834;28;20265;-55
2023/09/20 06:50:13;;;;;;;3.93;2.23;;;;;;;;;;5011759;28;20751;-55
2023/09/20 06:52:39;;;;;;;5.37;2.80;;;;;;;;;;5011853;28;20224;-55
2023/09/20 06:55:05;;;;;;;5.33;2.73;;;;;;;;;;5011775;28;20220;-55
2023/09/20 06:57:31;;;;;;;3.80;2.10;;;;;;;;;;5011775;28;20562;-55
2023/09/20 06:59:57;;;;;;;5.73;2.47;;;;;;;;;;5011521;28;20674;-55
2023/09/20 07:02:25;;;;;;;4.97;2.00;;;;;;;;;;5011675;28;20203;-55
2023/09/20 07:04:55;;;;;;;7.43;2.47;;;;;;;;;;5011330;28;20305;-53
2023/09/20 07:07:23;;;;;;;4.30;2.30;;;;;;;;;;5011701;28;20202;-53
2023/09/20 07:09:49;;;;;;;5.13;2.40;;;;;;;;;;5011412;28;20207;-54
2023/09/20 07:12:15;;;;;;;3.53;2.17;;;;;;;;;;5011624;28;20258;-53
2023/09/20 07:14:41;;;;;;;5.67;2.30;;;;;;;;;;5011275;28;20202;-53
2023/09/20 07:17:07;;;;;;;7.00;2.37;;;;;;;;;;5011356;28;20198;-53
2023/09/20 07:19:36;;;;;;;4.67;2.23;;;;;;;;;;5011411;28;20200;-53
2023/09/20 07:22:05;;;;;;;5.17;1.90;;;;;;;;;;5011431;28;20219;-53
2023/09/20 07:24:35;;;;;;;5.60;2.10;;;;;;;;;;5011505;28;20238;-53
2023/09/20 07:27:03;;;;;;;5.57;2.23;;;;;;;;;;5011292;28;20211;-53
2023/09/20 07:29:29;;;;;;;5.07;2.27;;;;;;;;;;4995757;28;20204;-53
2023/09/20 07:31:57;;;;;;;3.90;2.17;;;;;;;;;;4991565;28;20235;-53
2023/09/20 07:34:23;;;;;;;5.07;2.13;;;;;;;;;;4991709;28;20239;-55
2023/09/20 07:36:52;;;;;;;3.80;2.07;;;;;;;;;;4991754;28;20221;-55
2023/09/20 07:39:21;;;;;;;3.40;2.23;;;;;;;;;;4992029;28;20302;-53
2023/09/20 07:41:51;;;;;;;4.50;2.37;;;;;;;;;;4991585;28;20254;-52
2023/09/20 07:44:17;;;;;;;5.17;2.20;;;;;;;;;;4991633;28;20213;-53
2023/09/20 07:46:43;;;;;;;4.70;2.20;;;;;;;;;;4991448;28;20201;-53
2023/09/20 07:49:09;;;;;;;7.40;2.50;;;;;;;;;;4991467;28;20651;-53
2023/09/20 07:51:36;;;;;;;4.93;2.30;;;;;;;;;;4991565;28;20319;-55
2023/09/20 07:54:03;;;;;;;5.77;2.30;;;;;;;;;;4994209;28;20537;-52
2023/09/20 07:56:29;;;;;;;2.83;2.17;;;;;;;;;;4995564;28;20252;-53
2023/09/20 07:58:57;;;;;;;5.53;2.37;;;;;;;;;;4995280;28;20204;-53
2023/09/20 08:01:24;;;;;;;5.73;2.47;;;;;;;;;;4995488;28;20629;-53
2023/09/20 08:03:55;;;;;;;5.50;2.23;;;;;;;;;;4995566;28;20237;-53
2023/09/20 08:06:24;;;;;;;7.83;2.50;;;;;;;;;;4995493;28;20282;-53
2023/09/20 08:08:50;;;;;;;3.77;2.37;;;;;;;;;;4995762;28;20649;-52
2023/09/20 08:14:17;;;;;;;4.87;2.10;;;;;;;;;;4982132;28;20221;-52
2023/09/20 08:16:43;;;;;;;5.10;2.30;;;;;;;;;;4994568;28;20337;-52
2023/09/20 08:19:32;;;;;;;7.87;2.30;;;;;;;;;;4994694;28;20650;-52
2023/09/20 08:21:55;;;;;;;5.03;2.57;;;;;;;;;;4994153;28;20206;-53
2023/09/20 09:00:24;;;;;;;5.63;2.30;;;;;;;;;;5013994;28;20880;-53
2023/09/20 09:02:53;;;;;;;4.93;2.17;;;;;;;;;;5013650;28;20280;-53
2023/09/20 09:05:23;;;;;;;6.67;2.50;;;;;;;;;;5013420;28;20233;-53
2023/09/20 09:07:56;;;;;;;3.70;1.80;;;;;;;;;;5013941;28;20284;-52
2023/09/20 09:10:22;;;;;;;4.37;2.27;;;;;;;;;;5011963;28;20371;-53
2023/09/20 09:12:48;;;;;;;3.80;2.30;;;;;;;;;;5012191;28;20206;-53
2023/09/20 09:15:18;;;;;;;5.33;2.73;;;;;;;;;;5013925;28;20213;-53
2023/09/20 09:17:45;;;;;;;5.13;2.23;;;;;;;;;;5013622;28;20672;-53
2023/09/20 09:20:13;;;;;;;3.90;2.10;;;;;;;;;;5013684;28;20203;-52
2023/09/20 09:22:39;;;;;;;5.17;2.40;;;;;;;;;;5013596;28;20198;-52
2023/09/20 09:25:10;;;;;;;3.53;2.10;;;;;;;;;;5013423;28;20233;-53
2023/09/20 09:27:37;;;;;;;4.50;2.23;;;;;;;;;;5013656;28;20205;-53
2023/09/20 09:30:04;;;;;;;4.63;2.37;;;;;;;;;;5013723;28;20267;-53
2023/09/20 09:32:35;;;;;;;4.47;2.40;;;;;;;;;;5013237;28;20595;-53
2023/09/20 09:35:03;;;;;;;4.33;2.60;;;;;;;;;;5013490;28;20217;-52
2023/09/20 09:37:31;;;;;;;4.93;2.30;;;;;;;;;;5013369;28;20246;-52
2023/09/20 09:40:08;;;;;;;6.03;2.93;;;;;;;;;;5013289;28;20263;-52
2023/09/20 09:42:34;;;;;;;7.37;2.57;;;;;;;;;;5008479;28;20232;-52
2023/09/20 09:45:01;;;;;;;4.87;2.57;;;;;;;;;;5012971;28;20283;-52
2023/09/20 09:47:29;;;;;;;6.13;2.90;;;;;;;;;;5013433;28;20205;-52
2023/09/20 09:49:55;;;;;;;5.03;2.70;;;;;;;;;;5013091;28;20304;-52
2023/09/20 09:52:26;;;;;;;6.27;2.40;;;;;;;;;;5013217;28;20200;-52
2023/09/20 09:54:54;;;;;;;5.13;2.50;;;;;;;;;;5013004;28;20272;-52
2023/09/20 09:57:20;;;;;;;4.20;2.40;;;;;;;;;;5013166;28;20213;-52
2023/09/20 09:59:46;;;;;;;4.17;2.20;;;;;;;;;;5013174;28;20200;-52
2023/09/20 10:02:17;;;;;;;5.00;2.00;;;;;;;;;;5012799;28;20209;-53
2023/09/20 10:04:45;;;;;;;5.33;2.50;;;;;;;;;;5012910;28;20284;-52
2023/09/20 10:07:16;;;;;;;5.27;2.37;;;;;;;;;;5012911;28;20224;-52
2023/09/20 10:09:43;;;;;;;5.40;2.40;;;;;;;;;;5012883;28;20268;-52
2023/09/20 10:12:10;;;;;;;3.50;2.07;;;;;;;;;;5012732;28;20216;-53
2023/09/20 10:14:37;;;;;;;3.73;1.97;;;;;;;;;;5012768;28;20201;-53
2023/09/20 10:17:06;;;;;;;5.20;2.17;;;;;;;;;;5011706;28;20228;-52
2023/09/20 10:19:33;;;;;;;3.43;2.27;;;;;;;;;;5012834;28;20236;-52
2023/09/20 10:22:08;;;;;;;3.83;2.20;;;;;;;;;;5012441;28;20203;-52
2023/09/20 10:24:45;;;;;;;4.37;2.07;;;;;;;;;;5012713;28;20308;-52
2023/09/20 10:27:15;;;;;;;5.40;2.27;;;;;;;;;;5012610;28;20621;-53
2023/09/20 10:29:42;;;;;;;3.50;2.00;;;;;;;;;;5012478;28;20289;-52
2023/09/20 10:32:17;;;;;;;4.27;2.27;;;;;;;;;;5012400;28;20616;-53
2023/09/20 10:35:04;;;;;;;6.60;2.07;;;;;;;;;;5012455;28;20276;-53
2023/09/20 10:37:32;;;;;;;2.63;2.00;;;;;;;;;;5012019;28;20240;-52
2023/09/20 10:39:58;;;;;;;4.73;2.30;;;;;;;;;;5012131;28;20624;-52
2023/09/20 10:42:27;;;;;;;3.40;2.17;;;;;;;;;;5012354;28;20194;-52
2023/09/20 10:45:00;;;;;;;2.80;1.97;;;;;;;;;;5012149;28;20236;-53
2023/09/20 10:47:26;;;;;;;5.80;2.20;;;;;;;;;;5011977;28;20902;-52
2023/09/20 10:49:54;;;;;;;10.93;2.60;;;;;;;;;;5012152;28;20281;-52
2023/09/20 10:52:39;;;;;;;3.23;2.07;;;;;;;;;;5012262;28;20279;-52
2023/09/20 10:55:28;;;;;;;3.53;2.20;;;;;;;;;;5012059;28;20186;-52
2023/09/20 10:57:56;;;;;;;3.13;1.90;;;;;;;;;;4996850;28;20235;-53
2023/09/20 11:00:30;;;;;;;2.93;1.90;;;;;;;;;;5012066;28;20207;-53
2023/09/20 11:02:56;;;;;;;3.30;2.10;;;;;;;;;;5011932;28;20222;-52
2023/09/20 11:05:23;;;;;;;3.93;2.00;;;;;;;;;;5011853;28;20232;-52
2023/09/20 11:07:50;;;;;;;2.93;2.23;;;;;;;;;;5011798;28;20692;-53
2023/09/20 11:10:19;;;;;;;5.73;2.13;;;;;;;;;;5012042;28;20214;-53
2023/09/20 11:12:45;;;;;;;2.73;2.23;;;;;;;;;;5011876;28;20238;-53
2023/09/20 11:15:14;;;;;;;3.50;2.10;;;;;;;;;;5011673;28;20202;-53
2023/09/20 11:17:40;;;;;;;3.23;2.00;;;;;;;;;;5011678;28;20213;-52
2023/09/20 11:20:07;;;;;;;4.53;2.30;;;;;;;;;;5010414;28;20216;-53
2023/09/20 11:22:33;;;;;;;2.40;2.00;;;;;;;;;;5011786;28;20267;-53
2023/09/20 11:25:00;;;;;;;2.17;1.97;;;;;;;;;;5011242;28;20233;-53
2023/09/20 11:27:27;;;;;;;3.00;2.00;;;;;;;;;;5011444;28;20204;-53
2023/09/20 11:29:54;;;;;;;2.63;2.03;;;;;;;;;;5011211;28;20226;-54
2023/09/20 11:32:22;;;;;;;2.50;2.03;;;;;;;;;;5011712;28;20633;-54
2023/09/20 11:34:49;;;;;;;2.90;2.07;;;;;;;;;;5011641;28;20248;-54
2023/09/20 11:37:17;;;;;;;3.10;2.20;;;;;;;;;;5011386;28;20619;-56
2023/09/20 11:39:44;;;;;;;7.33;2.30;;;;;;;;;;5011347;28;20578;-54
2023/09/20 11:42:12;;;;;;;3.20;2.40;;;;;;;;;;5011256;28;20203;-54
2023/09/20 11:44:38;;;;;;;2.77;2.00;;;;;;;;;;5011249;28;20278;-54
2023/09/20 11:47:06;;;;;;;3.30;2.10;;;;;;;;;;5011389;28;20196;-55
2023/09/20 11:49:34;;;;;;;5.07;2.10;;;;;;;;;;5011486;28;20197;-52
2023/09/20 11:52:02;;;;;;;3.03;1.97;;;;;;;;;;5011087;28;20289;-56
2023/09/20 11:54:29;;;;;;;3.03;2.13;;;;;;;;;;5011332;28;20196;-53
2023/09/20 11:56:58;;;;;;;3.97;2.10;;;;;;;;;;5011125;28;20675;-54
2023/09/20 11:59:24;;;;;;;5.40;2.20;;;;;;;;;;5011387;28;20746;-53
2023/09/20 12:01:50;;;;;;;3.87;2.17;;;;;;;;;;5011283;28;20299;-53
2023/09/20 12:04:16;;;;;;;2.33;1.93;;;;;;;;;;5011057;28;20261;-52
2023/09/20 12:06:43;;;;;;;2.60;1.93;;;;;;;;;;5011165;28;20279;-53
2023/09/20 12:09:09;;;;;;;3.03;1.97;;;;;;;;;;5011191;28;20274;-53
2023/09/20 12:11:35;;;;;;;3.20;2.17;;;;;;;;;;5011165;28;20614;-53
2023/09/20 12:14:02;;;;;;;2.43;1.83;;;;;;;;;;5011072;28;20535;-53
2023/09/20 12:16:28;;;;;;;4.50;2.20;;;;;;;;;;5011107;28;20209;-54
2023/09/20 12:18:54;;;;;;;4.97;2.10;;;;;;;;;;5010936;28;20204;-53
2023/09/20 12:21:21;;;;;;;2.97;2.03;;;;;;;;;;5011062;28;20202;-53
2023/09/20 12:23:49;;;;;;;3.73;2.13;;;;;;;;;;5011076;28;20227;-53
2023/09/20 12:26:17;;;;;;;3.40;2.03;;;;;;;;;;5011043;28;20209;-53
2023/09/20 12:28:43;;;;;;;2.90;1.80;;;;;;;;;;5010943;28;20211;-53
2023/09/20 12:31:09;;;;;;;3.10;1.90;;;;;;;;;;5010807;28;20200;-53
2023/09/20 12:33:35;;;;;;;2.67;1.93;;;;;;;;;;5010890;28;20214;-53
2023/09/20 12:36:01;;;;;;;4.07;2.10;;;;;;;;;;5010643;28;20226;-53
2023/09/20 12:38:31;;;;;;;4.00;1.77;;;;;;;;;;5010703;28;20288;-53
2023/09/20 12:40:58;;;;;;;2.90;1.80;;;;;;;;;;5012859;28;20227;-53
2023/09/20 12:43:25;;;;;;;3.77;2.00;;;;;;;;;;5014348;28;20293;-53
2023/09/20 12:45:52;;;;;;;4.13;1.90;;;;;;;;;;5014352;28;20231;-53
2023/09/20 12:48:19;;;;;;;2.80;1.93;;;;;;;;;;5014214;28;20261;-53
2023/09/20 12:50:46;;;;;;;2.60;2.00;;;;;;;;;;5013740;28;20801;-53
2023/09/20 12:53:12;;;;;;;5.27;1.87;;;;;;;;;;5013727;28;20262;-53
2023/09/20 12:55:39;;;;;;;4.53;1.90;;;;;;;;;;5013502;28;20565;-53
2023/09/20 12:58:07;;;;;;;4.10;1.83;;;;;;;;;;5013653;28;20203;-53
2023/09/20 13:00:34;;;;;;;2.70;1.70;;;;;;;;;;5013726;28;20210;-53
2023/09/20 13:03:00;;;;;;;2.90;1.70;;;;;;;;;;5013616;28;20199;-53
2023/09/20 13:05:27;;;;;;;2.23;1.50;;;;;;;;;;5013542;28;20783;-55
2023/09/20 13:07:54;;;;;;;3.40;1.60;;;;;;;;;;5013626;28;20212;-53
2023/09/20 13:10:20;;;;;;;5.17;1.63;;;;;;;;;;5013873;28;20302;-53
2023/09/20 13:12:47;;;;;;;2.50;1.80;;;;;;;;;;5013662;28;20254;-53
2023/09/20 13:15:17;;;;;;;1.80;1.40;;;;;;;;;;5013635;28;20619;-53
2023/09/20 13:17:55;;;;;;;2.03;1.43;;;;;;;;;;5013501;28;20210;-53
2023/09/20 13:20:22;;;;;;;2.83;1.57;;;;;;;;;;5013791;28;20207;-53
2023/09/20 13:22:52;;;;;;;2.57;1.60;;;;;;;;;;5013777;28;20543;-53
2023/09/20 13:25:22;;;;;;;2.40;1.50;;;;;;;;;;5013468;28;20232;-53
2023/09/20 13:27:48;;;;;;;5.00;1.57;;;;;;;;;;5013610;28;20647;-53
2023/09/20 13:30:17;;;;;;;3.17;1.30;;;;;;;;;;5013289;28;20200;-56
2023/09/20 13:32:43;;;;;;;2.37;1.50;;;;;;;;;;5013263;28;20549;-53
2023/09/20 13:35:12;;;;;;;3.20;1.60;;;;;;;;;;5013299;28;20211;-53
2023/09/20 13:37:40;;;;;;;1.87;1.40;;;;;;;;;;5013015;28;20632;-53
2023/09/20 13:40:07;;;;;;;5.23;1.60;;;;;;;;;;5013096;28;20211;-53
2023/09/20 13:42:36;;;;;;;2.47;1.50;;;;;;;;;;5012996;28;20221;-53
2023/09/20 13:45:06;;;;;;;2.17;1.50;;;;;;;;;;5013077;28;20229;-53
2023/09/20 13:47:34;;;;;;;2.33;1.40;;;;;;;;;;5013062;28;20203;-54
2023/09/20 13:50:00;;;;;;;3.87;1.60;;;;;;;;;;5012816;28;20672;-54
2023/09/20 13:52:26;;;;;;;1.70;1.30;;;;;;;;;;5012786;28;20213;-53
2023/09/20 13:54:52;;;;;;;2.73;1.30;;;;;;;;;;5012699;28;20213;-54
2023/09/20 13:57:18;;;;;;;2.10;1.30;;;;;;;;;;5012940;28;20200;-54
2023/09/20 13:59:46;;;;;;;5.07;1.77;;;;;;;;;;5012801;28;20261;-53
2023/09/20 14:02:14;;;;;;;1.90;1.40;;;;;;;;;;5012455;28;20206;-53
2023/09/20 14:04:42;;;;;;;2.43;1.60;;;;;;;;;;5012268;28;20236;-52
2023/09/20 14:07:09;;;;;;;2.97;1.60;;;;;;;;;;5012352;28;20200;-54
2023/09/20 14:09:41;;;;;;;2.27;1.70;;;;;;;;;;5012502;28;20210;-53
2023/09/20 14:12:07;;;;;;;2.30;1.40;;;;;;;;;;5012550;28;20231;-53
2023/09/20 14:14:33;;;;;;;2.53;1.80;;;;;;;;;;5012479;28;20205;-53
2023/09/20 14:16:59;;;;;;;2.87;1.80;;;;;;;;;;5012546;28;20214;-53
2023/09/20 14:19:26;;;;;;;2.53;1.60;;;;;;;;;;5012364;28;20199;-53
2023/09/20 14:21:54;;;;;;;1.70;1.47;;;;;;;;;;5012248;28;20200;-53
2023/09/20 14:24:20;;;;;;;1.70;1.57;;;;;;;;;;5012450;28;20247;-53
2023/09/20 14:26:47;;;;;;;2.13;1.30;;;;;;;;;;5012228;28;20556;-53
2023/09/20 14:29:13;;;;;;;1.73;1.50;;;;;;;;;;5012217;28;20350;-53
2023/09/20 14:31:39;;;;;;;2.93;1.60;;;;;;;;;;5012210;28;20196;-53
2023/09/20 14:37:10;;;;;;;4.50;1.40;;;;;;;;;;5012131;28;20333;-53
2023/09/20 14:39:36;;;;;;;2.23;1.60;;;;;;;;;;5006762;28;20253;-54
2023/09/20 14:42:02;;;;;;;2.47;1.50;;;;;;;;;;5011581;28;20208;-54
2023/09/20 14:44:28;;;;;;;2.43;1.60;;;;;;;;;;5011987;28;20230;-54
2023/09/20 14:46:54;;;;;;;2.07;1.43;;;;;;;;;;5011916;28;20214;-53
2023/09/20 14:49:20;;;;;;;1.67;1.07;;;;;;;;;;5012068;28;20679;-55
2023/09/20 14:51:47;;;;;;;2.23;1.40;;;;;;;;;;5011873;28;20245;-54
2023/09/20 14:54:15;;;;;;;1.60;1.40;;;;;;;;;;5011341;28;20317;-54
2023/09/20 14:56:43;;;;;;;3.47;1.70;;;;;;;;;;5011742;28;20195;-54
2023/09/20 14:59:09;;;;;;;2.03;1.50;;;;;;;;;;5011116;28;20198;-54
2023/09/20 15:01:35;;;;;;;2.07;1.50;;;;;;;;;;5011426;28;20244;-54
2023/09/20 15:04:01;;;;;;;2.40;1.40;;;;;;;;;;5011083;28;20683;-54
2023/09/20 15:06:28;;;;;;;1.70;1.43;;;;;;;;;;5011294;28;20668;-54
2023/09/20 15:08:55;;;;;;;2.07;1.47;;;;;;;;;;5011237;28;20210;-54
2023/09/20 15:11:23;;;;;;;2.90;1.47;;;;;;;;;;5011661;28;20228;-54
2023/09/20 15:13:49;;;;;;;1.80;1.20;;;;;;;;;;5011531;28;20225;-54
2023/09/20 15:16:16;;;;;;;2.07;1.50;;;;;;;;;;5011694;28;20230;-54
2023/09/20 15:18:43;;;;;;;3.23;1.60;;;;;;;;;;5009042;28;20284;-54
2023/09/20 15:21:10;;;;;;;1.87;1.20;;;;;;;;;;5009604;28;20604;-54
2023/09/20 15:23:36;;;;;;;1.70;1.30;;;;;;;;;;5011565;28;20219;-54
2023/09/20 15:26:09;;;;;;;2.80;1.80;;;;;;;;;;5011627;28;20190;-54